createdAt,value
2018-07-04T00:00:12.482Z,21.89
2018-07-04T00:01:12.282Z,21.96
2018-07-04T00:02:12.288Z,21.93
2018-07-04T00:03:12.281Z,21.89
2018-07-04T00:04:12.288Z,21.91
2018-07-04T00:05:12.295Z,21.98
2018-07-04T00:06:12.301Z,21.91
2018-07-04T00:07:12.303Z,21.92
2018-07-04T00:08:12.324Z,21.83
2018-07-04T00:09:12.528Z,21.82
2018-07-04T00:10:12.331Z,21.72
2018-07-04T00:11:12.331Z,21.66
2018-07-04T00:12:12.345Z,21.61
2018-07-04T00:13:12.337Z,21.57
2018-07-04T00:14:12.342Z,21.57
2018-07-04T00:15:12.360Z,21.55
2018-07-04T00:16:12.356Z,21.57
2018-07-04T00:17:12.358Z,21.54
2018-07-04T00:18:12.364Z,21.58
2018-07-04T00:19:12.385Z,21.61
2018-07-04T00:20:12.588Z,21.61
2018-07-04T00:21:12.390Z,21.52
2018-07-04T00:22:12.415Z,21.57
2018-07-04T00:23:12.604Z,21.60
2018-07-04T00:24:12.616Z,21.57
2018-07-04T00:25:12.399Z,21.57
2018-07-04T00:26:12.431Z,21.50
2018-07-04T00:27:12.411Z,21.48
2018-07-04T00:28:12.428Z,21.57
2018-07-04T00:29:12.625Z,21.43
2018-07-04T00:30:12.629Z,21.46
2018-07-04T00:31:12.638Z,21.46
2018-07-04T00:32:12.440Z,21.42
2018-07-04T00:33:12.655Z,21.33
2018-07-04T00:34:12.447Z,21.33
2018-07-04T00:35:12.454Z,21.30
2018-07-04T00:36:12.658Z,21.27
2018-07-04T00:37:12.463Z,21.30
2018-07-04T00:39:12.486Z,21.21
2018-07-04T00:40:12.495Z,21.21
2018-07-04T00:41:12.505Z,21.22
2018-07-04T00:42:12.709Z,21.18
2018-07-04T00:43:12.495Z,21.15
2018-07-04T00:44:12.508Z,21.17
2018-07-04T00:45:12.504Z,21.25
2018-07-04T00:46:12.510Z,21.14
2018-07-04T00:47:12.515Z,21.15
2018-07-04T00:48:12.720Z,21.21
2018-07-04T00:49:12.726Z,21.11
2018-07-04T00:50:12.733Z,21.14
2018-07-04T00:51:12.534Z,21.03
2018-07-04T00:52:12.539Z,20.96
2018-07-04T00:53:12.548Z,20.96
2018-07-04T00:54:12.563Z,20.82
2018-07-04T00:55:12.553Z,20.82
2018-07-04T00:56:12.562Z,20.74
2018-07-04T00:57:12.571Z,20.62
2018-07-04T00:58:12.771Z,20.63
2018-07-04T00:59:12.580Z,20.56
2018-07-04T01:00:12.579Z,20.50
2018-07-04T01:01:12.582Z,20.43
2018-07-04T01:02:12.601Z,20.39
2018-07-04T01:03:12.796Z,20.36
2018-07-04T01:04:12.811Z,20.32
2018-07-04T01:05:12.605Z,20.40
2018-07-04T01:06:12.615Z,20.34
2018-07-04T01:07:12.622Z,20.36
2018-07-04T01:08:12.617Z,20.32
2018-07-04T01:09:12.621Z,20.26
2018-07-04T01:10:12.626Z,20.31
2018-07-04T01:11:12.636Z,20.25
2018-07-04T01:12:12.661Z,20.31
2018-07-04T01:13:12.639Z,20.24
2018-07-04T01:14:12.645Z,20.26
2018-07-04T01:15:12.662Z,20.22
2018-07-04T01:16:12.681Z,20.18
2018-07-04T01:17:12.660Z,20.25
2018-07-04T01:18:12.664Z,20.22
2018-07-04T01:19:12.682Z,20.24
2018-07-04T01:20:12.878Z,20.21
2018-07-04T01:21:12.676Z,20.11
2018-07-04T01:22:12.897Z,20.14
2018-07-04T01:23:12.698Z,20.11
2018-07-04T01:24:12.692Z,20.11
2018-07-04T01:25:12.900Z,20.06
2018-07-04T01:26:12.735Z,20.04
2018-07-04T01:27:12.703Z,20.03
2018-07-04T01:28:12.708Z,20.00
2018-07-04T01:29:12.721Z,20.02
2018-07-04T01:30:12.719Z,20.02
2018-07-04T01:31:12.722Z,20.06
2018-07-04T01:32:12.733Z,20.07
2018-07-04T01:33:12.734Z,20.10
2018-07-04T01:34:12.737Z,20.14
2018-07-04T01:35:12.752Z,20.18
2018-07-04T01:36:12.748Z,20.11
2018-07-04T01:37:12.956Z,20.14
2018-07-04T01:38:12.754Z,20.21
2018-07-04T01:39:12.760Z,20.11
2018-07-04T01:40:12.761Z,20.14
2018-07-04T01:41:12.771Z,20.14
2018-07-04T01:42:12.975Z,20.00
2018-07-04T01:43:12.790Z,19.92
2018-07-04T01:44:12.996Z,19.88
2018-07-04T01:45:12.796Z,19.86
2018-07-04T01:46:12.818Z,19.74
2018-07-04T01:47:12.822Z,19.76
2018-07-04T01:48:12.800Z,19.76
2018-07-04T01:49:12.803Z,19.88
2018-07-04T01:50:12.811Z,19.76
2018-07-04T01:51:12.814Z,19.71
2018-07-04T01:52:12.819Z,19.77
2018-07-04T01:53:13.042Z,19.92
2018-07-04T01:54:12.842Z,19.81
2018-07-04T01:55:12.829Z,19.85
2018-07-04T01:56:13.038Z,19.74
2018-07-04T01:57:12.839Z,19.85
2018-07-04T01:58:12.848Z,19.76
2018-07-04T01:59:12.850Z,19.77
2018-07-04T02:00:12.861Z,19.74
2018-07-04T02:01:12.859Z,19.89
2018-07-04T02:02:12.861Z,19.73
2018-07-04T02:03:13.070Z,19.71
2018-07-04T02:04:12.870Z,19.63
2018-07-04T02:05:13.078Z,19.62
2018-07-04T02:06:12.879Z,19.73
2018-07-04T02:07:13.088Z,19.66
2018-07-04T02:08:12.906Z,19.54
2018-07-04T02:09:12.896Z,19.56
2018-07-04T02:10:12.896Z,19.48
2018-07-04T02:11:12.904Z,19.44
2018-07-04T02:12:13.135Z,19.44
2018-07-04T02:13:12.923Z,19.41
2018-07-04T02:14:12.914Z,19.48
2018-07-04T02:15:12.919Z,19.33
2018-07-04T02:16:12.922Z,19.41
2018-07-04T02:17:12.927Z,19.33
2018-07-04T02:18:13.145Z,19.40
2018-07-04T02:19:12.936Z,19.40
2018-07-04T02:20:13.155Z,19.36
2018-07-04T02:21:13.144Z,19.51
2018-07-04T02:22:12.953Z,19.39
2018-07-04T02:23:12.963Z,19.40
2018-07-04T02:24:12.970Z,19.37
2018-07-04T02:25:12.960Z,19.34
2018-07-04T02:26:13.166Z,19.33
2018-07-04T02:27:12.987Z,19.27
2018-07-04T02:28:12.982Z,19.27
2018-07-04T02:29:13.192Z,19.24
2018-07-04T02:30:13.185Z,19.22
2018-07-04T02:31:12.999Z,19.14
2018-07-04T02:32:13.002Z,19.02
2018-07-04T02:33:13.021Z,19.02
2018-07-04T02:34:13.008Z,18.92
2018-07-04T02:35:13.018Z,18.90
2018-07-04T02:36:13.009Z,18.96
2018-07-04T02:37:13.026Z,18.93
2018-07-04T02:38:13.029Z,18.90
2018-07-04T02:39:13.223Z,18.90
2018-07-04T02:40:13.037Z,18.89
2018-07-04T02:41:13.230Z,18.80
2018-07-04T02:42:13.033Z,18.86
2018-07-04T02:43:13.035Z,18.80
2018-07-04T02:44:13.040Z,18.71
2018-07-04T02:45:13.055Z,18.78
2018-07-04T02:46:13.260Z,18.77
2018-07-04T02:47:13.050Z,18.74
2018-07-04T02:48:13.267Z,18.80
2018-07-04T02:49:13.260Z,18.89
2018-07-04T02:50:13.065Z,18.90
2018-07-04T02:51:13.073Z,18.89
2018-07-04T02:52:13.082Z,18.95
2018-07-04T02:53:13.075Z,18.92
2018-07-04T02:54:13.089Z,18.96
2018-07-04T02:55:13.084Z,18.99
2018-07-04T02:56:13.114Z,18.95
2018-07-04T02:57:13.295Z,18.93
2018-07-04T02:58:13.313Z,18.90
2018-07-04T02:59:13.111Z,18.83
2018-07-04T03:00:13.324Z,18.78
2018-07-04T03:01:13.122Z,18.75
2018-07-04T03:02:13.111Z,18.63
2018-07-04T03:03:13.131Z,18.62
2018-07-04T03:04:13.122Z,18.63
2018-07-04T03:05:13.124Z,18.44
2018-07-04T03:06:13.137Z,18.53
2018-07-04T03:07:13.155Z,18.49
2018-07-04T03:08:13.134Z,18.45
2018-07-04T03:09:13.141Z,18.31
2018-07-04T03:10:13.181Z,18.28
2018-07-04T03:11:13.147Z,18.23
2018-07-04T03:12:13.167Z,18.33
2018-07-04T03:13:13.166Z,18.25
2018-07-04T03:14:13.159Z,18.11
2018-07-04T03:15:13.163Z,18.08
2018-07-04T03:16:13.191Z,18.18
2018-07-04T03:17:13.196Z,18.16
2018-07-04T03:18:13.188Z,18.07
2018-07-04T03:19:13.189Z,18.15
2018-07-04T03:20:13.181Z,18.01
2018-07-04T03:21:13.184Z,18.16
2018-07-04T03:22:13.391Z,18.16
2018-07-04T03:23:13.207Z,18.11
2018-07-04T03:24:13.221Z,17.97
2018-07-04T03:25:13.198Z,17.97
2018-07-04T03:26:13.202Z,17.97
2018-07-04T03:27:13.218Z,18.04
2018-07-04T03:28:13.218Z,18.00
2018-07-04T03:29:13.214Z,17.97
2018-07-04T03:30:13.228Z,17.87
2018-07-04T03:31:13.424Z,17.89
2018-07-04T03:32:13.456Z,17.80
2018-07-04T03:33:13.228Z,17.80
2018-07-04T03:34:13.230Z,17.72
2018-07-04T03:35:13.439Z,17.78
2018-07-04T03:36:13.252Z,17.64
2018-07-04T03:37:13.263Z,17.76
2018-07-04T03:38:13.248Z,17.64
2018-07-04T03:39:13.255Z,17.60
2018-07-04T03:40:13.264Z,17.57
2018-07-04T03:41:13.258Z,17.68
2018-07-04T03:42:13.465Z,17.74
2018-07-04T03:43:13.279Z,17.71
2018-07-04T03:44:13.282Z,17.68
2018-07-04T03:45:13.270Z,17.51
2018-07-04T03:46:13.275Z,17.57
2018-07-04T03:47:13.484Z,17.54
2018-07-04T03:48:13.283Z,17.49
2018-07-04T03:49:13.491Z,17.41
2018-07-04T03:50:13.289Z,17.39
2018-07-04T03:51:13.295Z,17.39
2018-07-04T03:52:13.301Z,17.31
2018-07-04T03:53:13.531Z,17.34
2018-07-04T03:54:13.326Z,17.26
2018-07-04T03:55:13.305Z,17.26
2018-07-04T03:56:13.323Z,17.30
2018-07-04T03:57:13.314Z,17.23
2018-07-04T03:58:13.314Z,17.23
2018-07-04T03:59:13.521Z,17.24
2018-07-04T04:00:13.526Z,17.22
2018-07-04T04:01:13.337Z,17.24
2018-07-04T04:02:13.339Z,17.30
2018-07-04T04:03:13.336Z,17.27
2018-07-04T04:04:13.559Z,17.29
2018-07-04T04:05:13.340Z,17.34
2018-07-04T04:06:13.352Z,17.23
2018-07-04T04:07:13.603Z,17.38
2018-07-04T04:08:13.349Z,17.36
2018-07-04T04:09:13.565Z,17.36
2018-07-04T04:10:13.557Z,17.41
2018-07-04T04:11:13.373Z,17.34
2018-07-04T04:12:13.362Z,17.26
2018-07-04T04:13:13.366Z,17.39
2018-07-04T04:14:13.573Z,17.31
2018-07-04T04:15:13.583Z,17.38
2018-07-04T04:16:13.376Z,17.34
2018-07-04T04:17:13.378Z,17.39
2018-07-04T04:18:13.404Z,17.38
2018-07-04T04:19:13.594Z,17.44
2018-07-04T04:20:13.387Z,17.39
2018-07-04T04:21:13.387Z,17.49
2018-07-04T04:22:13.403Z,17.56
2018-07-04T04:23:13.631Z,17.51
2018-07-04T04:24:13.398Z,17.65
2018-07-04T04:25:13.402Z,17.54
2018-07-04T04:26:13.415Z,17.64
2018-07-04T04:27:13.487Z,17.68
2018-07-04T04:28:13.615Z,17.78
2018-07-04T04:29:13.431Z,17.82
2018-07-04T04:30:13.427Z,17.80
2018-07-04T04:31:13.449Z,17.87
2018-07-04T04:32:13.437Z,17.85
2018-07-04T04:33:13.434Z,17.82
2018-07-04T04:34:13.443Z,17.85
2018-07-04T04:35:13.434Z,17.90
2018-07-04T04:36:13.455Z,17.90
2018-07-04T04:37:13.466Z,17.90
2018-07-04T04:38:13.444Z,17.92
2018-07-04T04:39:13.461Z,17.90
2018-07-04T04:40:13.482Z,17.87
2018-07-04T04:41:13.453Z,17.90
2018-07-04T04:42:13.467Z,18.01
2018-07-04T04:43:13.663Z,18.00
2018-07-04T04:44:13.473Z,17.98
2018-07-04T04:45:13.477Z,18.10
2018-07-04T04:46:13.472Z,18.18
2018-07-04T04:47:13.678Z,18.23
2018-07-04T04:48:13.690Z,18.25
2018-07-04T04:49:13.490Z,18.37
2018-07-04T04:50:13.492Z,18.26
2018-07-04T04:51:13.495Z,18.34
2018-07-04T04:52:13.499Z,18.37
2018-07-04T04:53:13.493Z,18.49
2018-07-04T04:54:13.495Z,18.47
2018-07-04T04:55:13.504Z,18.58
2018-07-04T04:56:13.502Z,18.55
2018-07-04T04:57:13.509Z,18.65
2018-07-04T04:58:13.509Z,18.65
2018-07-04T04:59:13.514Z,18.74
2018-07-04T05:00:13.718Z,18.74
2018-07-04T05:01:13.567Z,18.83
2018-07-04T05:02:13.548Z,18.75
2018-07-04T05:03:13.744Z,18.81
2018-07-04T05:04:13.544Z,18.86
2018-07-04T05:05:13.539Z,18.89
2018-07-04T05:06:13.536Z,18.93
2018-07-04T05:07:13.539Z,18.99
2018-07-04T05:08:13.545Z,18.89
2018-07-04T05:09:13.762Z,18.89
2018-07-04T05:10:13.564Z,18.99
2018-07-04T05:11:13.556Z,19.08
2018-07-04T05:12:13.569Z,19.11
2018-07-04T05:13:13.565Z,19.07
2018-07-04T05:14:13.563Z,19.14
2018-07-04T05:15:13.569Z,19.15
2018-07-04T05:16:13.574Z,19.16
2018-07-04T05:17:13.574Z,19.21
2018-07-04T05:18:13.579Z,19.31
2018-07-04T05:19:13.608Z,19.24
2018-07-04T05:20:13.588Z,19.29
2018-07-04T05:21:13.590Z,19.40
2018-07-04T05:22:13.619Z,19.31
2018-07-04T05:23:13.598Z,19.39
2018-07-04T05:24:13.611Z,19.34
2018-07-04T05:25:13.622Z,19.44
2018-07-04T05:26:13.631Z,19.39
2018-07-04T05:27:13.612Z,19.51
2018-07-04T05:28:13.632Z,19.47
2018-07-04T05:29:13.625Z,19.64
2018-07-04T05:30:13.637Z,19.59
2018-07-04T05:31:13.629Z,19.66
2018-07-04T05:32:13.633Z,19.69
2018-07-04T05:33:13.633Z,19.74
2018-07-04T05:34:13.641Z,19.79
2018-07-04T05:35:13.699Z,19.82
2018-07-04T05:36:13.658Z,19.88
2018-07-04T05:37:13.651Z,19.95
2018-07-04T05:38:13.919Z,19.92
2018-07-04T05:39:13.658Z,19.99
2018-07-04T05:40:13.665Z,19.95
2018-07-04T05:41:13.801Z,19.99
2018-07-04T05:42:13.671Z,19.95
2018-07-04T05:43:13.678Z,19.96
2018-07-04T05:44:13.680Z,19.99
2018-07-04T05:45:13.695Z,19.94
2018-07-04T05:46:13.701Z,20.03
2018-07-04T05:47:13.732Z,20.03
2018-07-04T05:48:13.706Z,20.04
2018-07-04T05:49:13.730Z,20.11
2018-07-04T05:50:13.714Z,20.16
2018-07-04T05:51:13.730Z,20.09
2018-07-04T05:52:13.914Z,20.22
2018-07-04T05:53:13.716Z,20.26
2018-07-04T05:54:13.745Z,20.25
2018-07-04T05:55:13.729Z,20.26
2018-07-04T05:56:13.742Z,20.39
2018-07-04T05:57:13.955Z,20.41
2018-07-04T05:58:13.740Z,20.36
2018-07-04T05:59:13.754Z,20.40
2018-07-04T06:00:13.748Z,20.44
2018-07-04T06:01:13.764Z,20.51
2018-07-04T06:02:13.753Z,20.56
2018-07-04T06:03:13.761Z,20.52
2018-07-04T06:04:13.769Z,20.62
2018-07-04T06:05:13.765Z,20.67
2018-07-04T06:06:13.782Z,20.81
2018-07-04T06:07:13.777Z,20.80
2018-07-04T06:08:13.990Z,20.99
2018-07-04T06:09:13.809Z,20.97
2018-07-04T06:10:13.790Z,21.00
2018-07-04T06:11:13.795Z,21.09
2018-07-04T06:12:13.808Z,21.00
2018-07-04T06:13:13.814Z,21.12
2018-07-04T06:14:13.807Z,21.18
2018-07-04T06:15:13.824Z,21.20
2018-07-04T06:16:13.843Z,21.21
2018-07-04T06:17:13.846Z,21.18
2018-07-04T06:18:13.836Z,21.32
2018-07-04T06:19:13.861Z,21.29
2018-07-04T06:20:13.836Z,21.48
2018-07-04T06:21:14.057Z,21.48
2018-07-04T06:22:14.069Z,21.54
2018-07-04T06:23:13.848Z,21.55
2018-07-04T06:24:13.853Z,21.48
2018-07-04T06:25:14.061Z,21.66
2018-07-04T06:26:13.877Z,21.62
2018-07-04T06:27:13.879Z,21.76
2018-07-04T06:28:13.875Z,21.82
2018-07-04T06:29:13.876Z,21.82
2018-07-04T06:30:13.888Z,21.82
2018-07-04T06:31:13.886Z,21.93
2018-07-04T06:32:13.901Z,21.96
2018-07-04T06:33:13.898Z,21.96
2018-07-04T06:34:14.104Z,21.95
2018-07-04T06:35:13.932Z,21.91
2018-07-04T06:36:13.911Z,21.98
2018-07-04T06:37:13.919Z,22.04
2018-07-04T06:38:13.922Z,22.04
2018-07-04T06:39:14.061Z,22.04
2018-07-04T06:40:13.931Z,22.17
2018-07-04T06:41:14.147Z,22.25
2018-07-04T06:42:13.941Z,22.23
2018-07-04T06:43:13.947Z,22.22
2018-07-04T06:44:13.966Z,22.32
2018-07-04T06:45:13.994Z,22.30
2018-07-04T06:46:14.170Z,22.32
2018-07-04T06:47:13.981Z,22.39
2018-07-04T06:48:14.177Z,22.33
2018-07-04T06:49:14.022Z,22.35
2018-07-04T06:50:13.979Z,22.35
2018-07-04T06:51:13.988Z,22.35
2018-07-04T06:52:13.990Z,22.43
2018-07-04T06:53:13.998Z,22.39
2018-07-04T06:54:14.058Z,22.50
2018-07-04T06:55:14.007Z,22.51
2018-07-04T06:56:14.021Z,22.45
2018-07-04T06:57:14.018Z,22.43
2018-07-04T06:58:14.021Z,22.57
2018-07-04T06:59:14.032Z,22.65
2018-07-04T07:00:14.035Z,22.73
2018-07-04T07:01:14.038Z,22.83
2018-07-04T07:02:14.041Z,23.02
2018-07-04T07:03:14.264Z,22.96
2018-07-04T07:04:14.055Z,22.98
2018-07-04T07:05:14.262Z,23.02
2018-07-04T07:06:14.063Z,22.99
2018-07-04T07:07:14.070Z,23.08
2018-07-04T07:08:14.105Z,23.13
2018-07-04T07:09:14.079Z,23.15
2018-07-04T07:10:14.084Z,23.18
2018-07-04T07:11:14.088Z,23.18
2018-07-04T07:12:14.096Z,23.24
2018-07-04T07:13:14.100Z,23.39
2018-07-04T07:14:14.113Z,23.28
2018-07-04T07:15:14.110Z,23.34
2018-07-04T07:16:14.327Z,23.44
2018-07-04T07:17:14.122Z,23.44
2018-07-04T07:18:14.125Z,23.62
2018-07-04T07:19:14.136Z,23.80
2018-07-04T07:20:14.147Z,23.91
2018-07-04T07:21:14.161Z,23.93
2018-07-04T07:22:14.148Z,23.92
2018-07-04T07:23:14.154Z,23.87
2018-07-04T07:24:14.162Z,23.81
2018-07-04T07:25:14.163Z,23.77
2018-07-04T07:26:14.371Z,23.84
2018-07-04T07:27:14.185Z,23.69
2018-07-04T07:28:14.179Z,23.74
2018-07-04T07:29:14.187Z,23.73
2018-07-04T07:30:14.203Z,23.78
2018-07-04T07:31:14.202Z,23.87
2018-07-04T07:32:14.203Z,23.95
2018-07-04T07:33:14.237Z,23.96
2018-07-04T07:34:14.379Z,23.99
2018-07-04T07:35:14.230Z,24.05
2018-07-04T07:36:14.234Z,24.05
2018-07-04T07:37:14.243Z,24.05
2018-07-04T07:38:14.259Z,24.03
2018-07-04T07:39:14.241Z,24.01
2018-07-04T07:40:14.260Z,23.95
2018-07-04T07:41:14.255Z,23.86
2018-07-04T07:42:14.284Z,23.84
2018-07-04T07:43:14.265Z,23.78
2018-07-04T07:44:14.269Z,23.83
2018-07-04T07:45:14.290Z,23.73
2018-07-04T07:46:14.295Z,23.73
2018-07-04T07:47:14.285Z,23.77
2018-07-04T07:48:14.300Z,23.78
2018-07-04T07:49:14.299Z,23.77
2018-07-04T07:50:14.316Z,23.78
2018-07-04T07:51:14.320Z,23.84
2018-07-04T07:52:14.314Z,23.93
2018-07-04T07:53:14.331Z,23.98
2018-07-04T07:54:14.403Z,24.01
2018-07-04T07:55:14.331Z,24.10
2018-07-04T07:56:14.336Z,24.08
2018-07-04T07:57:14.352Z,24.13
2018-07-04T07:58:14.361Z,24.16
2018-07-04T07:59:14.554Z,24.16
2018-07-04T08:00:14.356Z,24.29
2018-07-04T08:01:14.364Z,24.24
2018-07-04T08:02:14.375Z,24.38
2018-07-04T08:03:14.402Z,24.40
2018-07-04T08:04:14.397Z,24.40
2018-07-04T08:05:14.400Z,24.43
2018-07-04T08:06:14.402Z,24.35
2018-07-04T08:07:14.611Z,24.42
2018-07-04T08:08:14.417Z,24.42
2018-07-04T08:09:14.409Z,24.53
2018-07-04T08:10:14.412Z,24.63
2018-07-04T08:11:14.420Z,24.63
2018-07-04T08:12:14.427Z,24.60
2018-07-04T08:13:14.433Z,24.68
2018-07-04T08:14:14.448Z,24.86
2018-07-04T08:15:14.453Z,24.98
2018-07-04T08:16:14.450Z,25.07
2018-07-04T08:17:14.479Z,25.16
2018-07-04T08:18:14.464Z,25.23
2018-07-04T08:19:14.491Z,25.28
2018-07-04T08:20:14.676Z,25.29
2018-07-04T08:21:14.481Z,25.43
2018-07-04T08:22:14.485Z,25.41
2018-07-04T08:23:14.707Z,25.53
2018-07-04T08:24:14.499Z,25.60
2018-07-04T08:25:14.503Z,25.68
2018-07-04T08:26:14.533Z,25.85
2018-07-04T08:27:14.519Z,26.03
2018-07-04T08:28:14.527Z,26.23
2018-07-04T08:29:14.527Z,26.23
2018-07-04T08:30:14.535Z,26.34
2018-07-04T08:31:14.552Z,26.33
2018-07-04T08:32:14.764Z,26.23
2018-07-04T08:33:14.552Z,26.19
2018-07-04T08:34:14.762Z,26.06
2018-07-04T08:35:14.579Z,26.22
2018-07-04T08:36:14.587Z,26.07
2018-07-04T08:37:14.589Z,26.26
2018-07-04T08:38:14.593Z,26.18
2018-07-04T08:39:14.602Z,26.06
2018-07-04T08:40:14.597Z,25.85
2018-07-04T08:41:14.604Z,25.85
2018-07-04T08:42:14.641Z,25.85
2018-07-04T08:43:14.818Z,25.72
2018-07-04T08:44:14.857Z,25.73
2018-07-04T08:45:14.630Z,25.75
2018-07-04T08:46:14.656Z,25.75
2018-07-04T08:47:14.841Z,25.77
2018-07-04T08:48:14.646Z,25.77
2018-07-04T08:49:14.655Z,25.68
2018-07-04T08:50:14.657Z,25.69
2018-07-04T08:51:14.665Z,25.65
2018-07-04T08:52:14.682Z,25.60
2018-07-04T08:53:14.691Z,25.60
2018-07-04T08:54:14.699Z,25.50
2018-07-04T08:55:14.701Z,25.47
2018-07-04T08:56:14.695Z,25.40
2018-07-04T08:57:14.731Z,25.41
2018-07-04T08:58:14.716Z,25.51
2018-07-04T08:59:14.724Z,25.48
2018-07-04T09:00:14.736Z,25.48
2018-07-04T09:01:14.742Z,25.53
2018-07-04T09:02:14.735Z,25.48
2018-07-04T09:03:14.750Z,25.38
2018-07-04T09:04:14.949Z,25.44
2018-07-04T09:05:14.955Z,25.51
2018-07-04T09:06:14.761Z,25.51
2018-07-04T09:07:14.776Z,25.55
2018-07-04T09:08:14.785Z,25.55
2018-07-04T09:09:14.777Z,25.59
2018-07-04T09:10:14.782Z,25.63
2018-07-04T09:11:14.790Z,25.70
2018-07-04T09:12:14.796Z,25.81
2018-07-04T09:13:14.801Z,25.87
2018-07-04T09:14:14.821Z,25.93
2018-07-04T09:15:14.837Z,25.95
2018-07-04T09:16:14.818Z,26.06
2018-07-04T09:17:15.111Z,26.06
2018-07-04T09:18:14.833Z,26.13
2018-07-04T09:19:14.850Z,26.19
2018-07-04T09:20:14.859Z,26.26
2018-07-04T09:21:14.863Z,26.29
2018-07-04T09:22:14.858Z,26.22
2018-07-04T09:23:14.875Z,26.07
2018-07-04T09:24:14.870Z,26.15
2018-07-04T09:25:14.878Z,26.05
2018-07-04T09:26:14.895Z,26.07
2018-07-04T09:27:15.090Z,25.95
2018-07-04T09:28:14.920Z,25.99
2018-07-04T09:29:14.901Z,25.95
2018-07-04T09:30:14.906Z,25.85
2018-07-04T09:31:14.915Z,25.83
2018-07-04T09:32:14.918Z,25.80
2018-07-04T09:33:15.131Z,25.78
2018-07-04T09:34:14.954Z,25.75
2018-07-04T09:35:14.950Z,25.73
2018-07-04T09:36:14.946Z,25.78
2018-07-04T09:37:14.972Z,25.77
2018-07-04T09:38:14.958Z,25.72
2018-07-04T09:39:14.965Z,25.65
2018-07-04T09:40:14.970Z,25.60
2018-07-04T09:41:15.189Z,25.60
2018-07-04T09:42:15.203Z,25.59
2018-07-04T09:43:15.003Z,25.55
2018-07-04T09:44:15.212Z,25.55
2018-07-04T09:45:15.014Z,25.55
2018-07-04T09:46:15.020Z,25.58
2018-07-04T09:47:15.015Z,25.53
2018-07-04T09:48:15.032Z,25.40
2018-07-04T09:49:15.038Z,25.41
2018-07-04T09:50:15.033Z,25.43
2018-07-04T09:51:15.072Z,25.38
2018-07-04T09:52:15.047Z,25.41
2018-07-04T09:53:15.063Z,25.43
2018-07-04T09:54:15.058Z,25.48
2018-07-04T09:55:15.080Z,25.44
2018-07-04T09:56:15.074Z,25.35
2018-07-04T09:57:15.080Z,25.36
2018-07-04T09:58:15.289Z,25.33
2018-07-04T09:59:15.115Z,25.35
2018-07-04T10:00:15.311Z,25.36
2018-07-04T10:01:15.104Z,25.40
2018-07-04T10:02:15.110Z,25.46
2018-07-04T10:03:15.321Z,25.40
2018-07-04T10:04:15.330Z,25.48
2018-07-04T10:05:15.140Z,25.46
2018-07-04T10:06:15.145Z,25.38
2018-07-04T10:07:15.141Z,25.40
2018-07-04T10:08:15.157Z,25.38
2018-07-04T10:09:15.152Z,25.29
2018-07-04T10:10:15.158Z,25.41
2018-07-04T10:11:15.171Z,25.48
2018-07-04T10:12:15.195Z,25.53
2018-07-04T10:13:15.180Z,25.53
2018-07-04T10:14:15.210Z,25.62
2018-07-04T10:15:15.194Z,25.73
2018-07-04T10:16:15.200Z,25.73
2018-07-04T10:17:15.205Z,25.83
2018-07-04T10:18:15.448Z,25.85
2018-07-04T10:19:15.231Z,25.80
2018-07-04T10:20:15.224Z,25.85
2018-07-04T10:21:15.245Z,25.81
2018-07-04T10:22:15.235Z,25.87
2018-07-04T10:23:15.251Z,25.90
2018-07-04T10:24:15.250Z,25.81
2018-07-04T10:25:15.457Z,25.85
2018-07-04T10:26:15.263Z,25.85
2018-07-04T10:27:15.486Z,25.81
2018-07-04T10:28:15.490Z,25.81
2018-07-04T10:29:15.291Z,25.77
2018-07-04T10:30:15.493Z,25.72
2018-07-04T10:31:15.293Z,25.75
2018-07-04T10:32:15.304Z,25.69
2018-07-04T10:33:15.306Z,25.72
2018-07-04T10:34:15.565Z,25.73
2018-07-04T10:35:15.333Z,25.68
2018-07-04T10:36:15.327Z,25.80
2018-07-04T10:37:15.333Z,25.77
2018-07-04T10:38:15.548Z,25.77
2018-07-04T10:39:15.358Z,25.70
2018-07-04T10:40:15.563Z,25.69
2018-07-04T10:41:15.368Z,25.53
2018-07-04T10:42:15.360Z,25.53
2018-07-04T10:43:15.581Z,25.50
2018-07-04T10:44:15.378Z,25.46
2018-07-04T10:45:15.396Z,25.21
2018-07-04T10:46:15.390Z,25.08
2018-07-04T10:47:15.399Z,24.99
2018-07-04T10:48:15.607Z,24.86
2018-07-04T10:49:15.433Z,24.85
2018-07-04T10:50:15.412Z,24.68
2018-07-04T10:51:15.431Z,24.68
2018-07-04T10:52:15.441Z,24.81
2018-07-04T10:53:15.445Z,24.77
2018-07-04T10:54:15.447Z,24.69
2018-07-04T10:55:15.456Z,24.77
2018-07-04T10:56:15.464Z,24.85
2018-07-04T10:57:15.483Z,24.85
2018-07-04T10:58:15.493Z,24.89
2018-07-04T10:59:15.484Z,24.81
2018-07-04T11:00:15.490Z,24.89
2018-07-04T11:01:15.505Z,25.10
2018-07-04T11:02:15.487Z,25.04
2018-07-04T11:03:15.694Z,25.04
2018-07-04T11:04:15.499Z,25.13
2018-07-04T11:05:15.505Z,25.14
2018-07-04T11:06:15.522Z,25.11
2018-07-04T11:07:15.517Z,25.07
2018-07-04T11:08:15.524Z,25.08
2018-07-04T11:09:15.739Z,25.07
2018-07-04T11:10:15.550Z,25.10
2018-07-04T11:11:15.765Z,25.14
2018-07-04T11:12:15.545Z,25.10
2018-07-04T11:13:15.551Z,25.07
2018-07-04T11:14:15.561Z,25.06
2018-07-04T11:15:15.567Z,25.07
2018-07-04T11:16:15.582Z,25.11
2018-07-04T11:17:15.589Z,25.07
2018-07-04T11:18:15.585Z,25.14
2018-07-04T11:19:15.592Z,25.21
2018-07-04T11:20:15.607Z,25.17
2018-07-04T11:21:15.601Z,25.22
2018-07-04T11:22:15.678Z,25.16
2018-07-04T11:23:15.630Z,25.18
2018-07-04T11:24:15.840Z,25.21
2018-07-04T11:25:15.646Z,25.31
2018-07-04T11:26:15.643Z,25.28
2018-07-04T11:27:15.656Z,25.29
2018-07-04T11:28:15.658Z,25.46
2018-07-04T11:29:15.652Z,25.48
2018-07-04T11:30:15.666Z,25.40
2018-07-04T11:31:15.877Z,25.47
2018-07-04T11:32:15.670Z,25.46
2018-07-04T11:33:15.679Z,25.43
2018-07-04T11:34:15.886Z,25.43
2018-07-04T11:35:15.698Z,25.38
2018-07-04T11:36:15.694Z,25.51
2018-07-04T11:37:15.927Z,25.60
2018-07-04T11:38:15.722Z,25.54
2018-07-04T11:39:15.717Z,25.48
2018-07-04T11:40:15.723Z,25.54
2018-07-04T11:41:15.737Z,25.62
2018-07-04T11:42:15.759Z,25.63
2018-07-04T11:43:15.740Z,25.70
2018-07-04T11:44:15.765Z,25.68
2018-07-04T11:45:15.765Z,25.75
2018-07-04T11:46:15.773Z,25.70
2018-07-04T11:47:15.765Z,25.73
2018-07-04T11:48:15.783Z,25.77
2018-07-04T11:49:15.785Z,25.80
2018-07-04T11:50:15.792Z,25.81
2018-07-04T11:51:15.807Z,25.95
2018-07-04T11:52:15.800Z,26.05
2018-07-04T11:53:15.867Z,26.25
2018-07-04T11:54:15.827Z,26.23
2018-07-04T11:55:15.864Z,26.29
2018-07-04T11:56:15.835Z,26.28
2018-07-04T11:57:15.831Z,26.26
2018-07-04T11:58:15.839Z,26.21
2018-07-04T11:59:15.855Z,26.16
2018-07-04T12:00:15.853Z,26.21
2018-07-04T12:01:16.061Z,26.19
2018-07-04T12:02:15.867Z,26.29
2018-07-04T12:03:15.872Z,26.38
2018-07-04T12:04:15.877Z,26.36
2018-07-04T12:05:15.881Z,26.37
2018-07-04T12:06:15.893Z,26.44
2018-07-04T12:07:15.909Z,26.37
2018-07-04T12:08:15.912Z,26.44
2018-07-04T12:09:15.920Z,26.43
2018-07-04T12:10:15.915Z,26.60
2018-07-04T12:11:15.927Z,26.59
2018-07-04T12:12:15.940Z,26.60
2018-07-04T12:13:15.938Z,26.63
2018-07-04T12:14:15.946Z,26.68
2018-07-04T12:15:15.950Z,26.59
2018-07-04T12:16:15.956Z,26.56
2018-07-04T12:17:15.989Z,26.53
2018-07-04T12:18:15.978Z,26.48
2018-07-04T12:19:16.003Z,26.47
2018-07-04T12:20:16.001Z,26.63
2018-07-04T12:21:16.005Z,26.74
2018-07-04T12:22:16.007Z,26.66
2018-07-04T12:23:16.019Z,26.60
2018-07-04T12:24:16.037Z,26.62
2018-07-04T12:25:16.015Z,26.58
2018-07-04T12:26:16.023Z,26.53
2018-07-04T12:27:16.030Z,26.56
2018-07-04T12:28:16.257Z,26.51
2018-07-04T12:29:16.064Z,26.47
2018-07-04T12:30:16.050Z,26.52
2018-07-04T12:31:16.260Z,26.45
2018-07-04T12:32:16.075Z,26.43
2018-07-04T12:33:16.085Z,26.37
2018-07-04T12:34:16.087Z,26.40
2018-07-04T12:35:16.088Z,26.38
2018-07-04T12:36:16.293Z,26.37
2018-07-04T12:37:16.110Z,26.36
2018-07-04T12:38:16.116Z,26.33
2018-07-04T12:39:16.315Z,26.44
2018-07-04T12:40:16.127Z,26.34
2018-07-04T12:41:16.138Z,26.29
2018-07-04T12:42:16.131Z,26.26
2018-07-04T12:43:16.151Z,26.22
2018-07-04T12:44:16.155Z,26.28
2018-07-04T12:45:16.151Z,26.29
2018-07-04T12:46:16.169Z,26.34
2018-07-04T12:47:16.235Z,26.41
2018-07-04T12:48:16.182Z,26.44
2018-07-04T12:49:16.396Z,26.53
2018-07-04T12:50:16.213Z,26.48
2018-07-04T12:51:16.195Z,26.45
2018-07-04T12:52:16.211Z,26.48
2018-07-04T12:53:16.205Z,26.47